Accueil
METAR-TAF:

METAR-TAF

Aéroports :

Bolzano, Italie

latitude: 46-28N, longitude: 011-20E, altitude: 262 m

Observation

Le bulletin a été fait il y a 1 heure et 22 minutes, à 20:50 UTC
Vent 2 kt de direction variable
Température 22°C
Humidité 73%
Pression 1018 hPa
Visibilité 10 km ou plus
Quelques nuages à une hauteur de 5500 ft, Cumulonimbus.
Nuages épars à une hauteur de 12000 ft

METAR: LIPB 212050Z VRB02KT 9999 FEW055CB SCT120 22/17 Q1018

Heure: 00:12 (22:12 UTC)

Prévision

Le bulletin a été fait il y a 11 heures et 12 minutes, à 11:00 UTC
Prévision valable du 21 à 12 UTC au 22 à 12 UTC
Vent 5 kt de direction variable
Visibilité 10 km ou plus
Nuages épars à une hauteur de 5000 ft
Probabilité 04% :
Temporairement
du 21 à 13 UTC au 21 à 18 UTC
orage, pluie

TAF: LIPB 211100Z 2112/2212 VRB05KT 9999 SCT050 PROB040 TEMPO 2113/2118 TSRA

Observations et prévisions météorologiques de plus de 4000 aéroports (messages METAR et TAF).

Les stations disponibles sont représentées par des disques jaunes et rouges sur la carte.

Passer la souris dessus pour voir le nom de la station.

Cliquer dessus pour voir les observations et prévisions météorologiques.

Pour changer de carte: cliquez sur les boutons verts avec une croix noire pour zoomer, sur le bouton vert avec un tiret pour effectuer un zoom arrière, ou sur les flèches vertes pour les cartes adjacentes.


METAR-TAF: